235км ВСТО ЛЧ

Карта отелей и гостиниц, располагающихся рядом с аэропортом 235км ВСТО ЛЧ :

235км ВСТО ЛЧ Иркутская область 56° 24' 23.5008" N, 101° 7' 26.04" E
Код аэродрома ИКАО
HJ2P
Код аэродрома RU
ХЙ2П
Координаты
N56.40653° E101.12390°
Превышение над уровнем моря
548
Основная полоса
01/19
Курс магнитный
012,4/192,4
Длина основной ВПП
24
Ширина основной ВПП
21
Покрытие основной ВПП
Твёрдое
Освещение ВПП
По запросу
Тип: 
Вертодром
Класс аэродрома: 
Принадлежность: 
ГА
Статус: 
Действующий
Сайт: 
E-mail аэродрома: 
Страна: 
Россия
Регион: 
Иркутская область
Город: 
Дополнительная информация: 
Горный. Владелец ПП: нет данных.

Найти трансфер

С помощью этой формы Вы можете найти трансфер из аэропорта 235км ВСТО ЛЧ в город, аэропорт или вокзал:

Карта места

Javascript is required to view this map.

Погода в аэропортах:

Авиационная погода в Емельяново

Регион: 
Погода METAR: 
UNKL 061030Z 21003MPS 9999 -SHSN BKN031CB 03/M02 Q1015 R29/810250 NOSIG RMK QFE735
Время наблюдения
2021-12-06T10:30:00Z
Температура C
3.0
Точка росы
-2.0
Направление ветра
210
Скорость ветра (узлы)
6
Метео видимость
6.21
Явления погоды
-SHSN
Условия полета
VFR
Аэропорт подробнее: 

Авиационная погода в Кневичи

Регион: 
Погода METAR: 
UHWW 061030Z 32002MPS 0300 0100N R25L/2000D FZFG VV001 M04/M05 Q1026 R25L/0///70 NOSIG RMK QBB050 MT OBSC QFE768
Время наблюдения
2021-12-06T10:30:00Z
Температура C
-4.0
Точка росы
-5.0
Направление ветра
320
Скорость ветра (узлы)
4
Метео видимость
0.19
Явления погоды
FZFG
Условия полета
LIFR
Аэропорт подробнее: 

Авиационная погода в Архангельске

Регион: 
Погода METAR: 
ULAA 061030Z 25004MPS 9999 -SHSN OVC030CB M06/M08 Q1028 R26/490339 NOSIG RMK QFE769/1026
Время наблюдения
2021-12-06T10:30:00Z
Температура C
-6.0
Точка росы
-8.0
Направление ветра
250
Скорость ветра (узлы)
8
Метео видимость
6.21
Явления погоды
-SHSN
Условия полета
MVFR
Аэропорт подробнее: 

Авиационная погода в Раменское

Регион: 
Погода METAR: 
UUBW 060800Z 14004MPS 6000 -SN OVC007 M04/M05 Q1021 R30/520240 NOSIG
Время наблюдения
2021-12-06T08:00:00Z
Температура C
-4.0
Точка росы
-5.0
Направление ветра
140
Скорость ветра (узлы)
8
Метео видимость
3.73
Явления погоды
-SN
Условия полета
IFR
Аэропорт подробнее: